sensor_id;sensor_type;location;lat;lon;timestamp;P1;durP1;ratioP1;P2;durP2;ratioP2
19985;SDS011;10154;52.474;10.768;2023-04-30T00:01:25;0.20;;;0.20;;
19985;SDS011;10154;52.474;10.768;2023-04-30T00:03:51;0.30;;;0.30;;
19985;SDS011;10154;52.474;10.768;2023-04-30T00:06:16;0.93;;;0.47;;
19985;SDS011;10154;52.474;10.768;2023-04-30T00:08:41;0.23;;;0.23;;
19985;SDS011;10154;52.474;10.768;2023-04-30T00:11:07;0.43;;;0.33;;
19985;SDS011;10154;52.474;10.768;2023-04-30T00:13:32;0.20;;;0.20;;
19985;SDS011;10154;52.474;10.768;2023-04-30T00:15:58;0.33;;;0.33;;
19985;SDS011;10154;52.474;10.768;2023-04-30T00:18:23;0.50;;;0.50;;
19985;SDS011;10154;52.474;10.768;2023-04-30T00:20:48;0.40;;;0.40;;
19985;SDS011;10154;52.474;10.768;2023-04-30T00:23:15;0.37;;;0.37;;
19985;SDS011;10154;52.474;10.768;2023-04-30T00:25:41;2.20;;;0.43;;
19985;SDS011;10154;52.474;10.768;2023-04-30T00:28:06;0.97;;;0.83;;
19985;SDS011;10154;52.474;10.768;2023-04-30T00:30:31;2.03;;;0.83;;
19985;SDS011;10154;52.474;10.768;2023-04-30T00:32:57;0.20;;;0.20;;
19985;SDS011;10154;52.474;10.768;2023-04-30T00:35:22;0.90;;;0.57;;
19985;SDS011;10154;52.474;10.768;2023-04-30T00:37:47;0.20;;;0.20;;
19985;SDS011;10154;52.474;10.768;2023-04-30T00:40:13;0.60;;;0.60;;
19985;SDS011;10154;52.474;10.768;2023-04-30T00:42:38;1.60;;;0.90;;
19985;SDS011;10154;52.474;10.768;2023-04-30T00:45:04;15.93;;;0.40;;
19985;SDS011;10154;52.474;10.768;2023-04-30T00:47:30;0.30;;;0.30;;
19985;SDS011;10154;52.474;10.768;2023-04-30T00:49:56;0.50;;;0.50;;
19985;SDS011;10154;52.474;10.768;2023-04-30T00:52:22;0.37;;;0.37;;
19985;SDS011;10154;52.474;10.768;2023-04-30T00:54:47;0.27;;;0.27;;
19985;SDS011;10154;52.474;10.768;2023-04-30T00:57:12;0.57;;;0.57;;
19985;SDS011;10154;52.474;10.768;2023-04-30T00:59:38;0.50;;;0.50;;
19985;SDS011;10154;52.474;10.768;2023-04-30T01:02:03;0.40;;;0.30;;
19985;SDS011;10154;52.474;10.768;2023-04-30T01:04:30;1.03;;;0.80;;
19985;SDS011;10154;52.474;10.768;2023-04-30T01:06:55;0.40;;;0.40;;
19985;SDS011;10154;52.474;10.768;2023-04-30T01:09:21;0.30;;;0.30;;
19985;SDS011;10154;52.474;10.768;2023-04-30T01:12:32;0.30;;;0.30;;
19985;SDS011;10154;52.474;10.768;2023-04-30T01:15:32;0.20;;;0.20;;
19985;SDS011;10154;52.474;10.768;2023-04-30T01:17:45;0.23;;;0.23;;
19985;SDS011;10154;52.474;10.768;2023-04-30T01:20:16;0.20;;;0.20;;
19985;SDS011;10154;52.474;10.768;2023-04-30T01:25:20;0.57;;;0.57;;
19985;SDS011;10154;52.474;10.768;2023-04-30T01:27:59;0.20;;;0.20;;
19985;SDS011;10154;52.474;10.768;2023-04-30T01:30:41;0.20;;;0.20;;
19985;SDS011;10154;52.474;10.768;2023-04-30T01:33:09;0.70;;;0.70;;
19985;SDS011;10154;52.474;10.768;2023-04-30T01:43:59;0.27;;;0.27;;
19985;SDS011;10154;52.474;10.768;2023-04-30T01:46:37;0.40;;;0.40;;
19985;SDS011;10154;52.474;10.768;2023-04-30T01:52:03;0.30;;;0.30;;
19985;SDS011;10154;52.474;10.768;2023-04-30T01:57:17;0.30;;;0.30;;
19985;SDS011;10154;52.474;10.768;2023-04-30T01:59:54;0.40;;;0.37;;
19985;SDS011;10154;52.474;10.768;2023-04-30T02:02:19;0.20;;;0.20;;
19985;SDS011;10154;52.474;10.768;2023-04-30T02:04:45;0.30;;;0.30;;
19985;SDS011;10154;52.474;10.768;2023-04-30T02:07:11;0.53;;;0.47;;
19985;SDS011;10154;52.474;10.768;2023-04-30T02:09:43;0.20;;;0.20;;
19985;SDS011;10154;52.474;10.768;2023-04-30T02:12:08;0.47;;;0.47;;
19985;SDS011;10154;52.474;10.768;2023-04-30T02:14:35;0.30;;;0.30;;
19985;SDS011;10154;52.474;10.768;2023-04-30T02:17:00;0.20;;;0.20;;
19985;SDS011;10154;52.474;10.768;2023-04-30T02:19:25;0.20;;;0.20;;
19985;SDS011;10154;52.474;10.768;2023-04-30T02:21:51;0.20;;;0.20;;
19985;SDS011;10154;52.474;10.768;2023-04-30T02:24:16;0.20;;;0.20;;
19985;SDS011;10154;52.474;10.768;2023-04-30T02:26:41;0.20;;;0.20;;
19985;SDS011;10154;52.474;10.768;2023-04-30T02:29:07;2.20;;;0.83;;
19985;SDS011;10154;52.474;10.768;2023-04-30T02:31:32;0.30;;;0.30;;
19985;SDS011;10154;52.474;10.768;2023-04-30T02:33:57;0.30;;;0.30;;
19985;SDS011;10154;52.474;10.768;2023-04-30T02:36:22;0.20;;;0.20;;
19985;SDS011;10154;52.474;10.768;2023-04-30T02:38:48;0.20;;;0.20;;
19985;SDS011;10154;52.474;10.768;2023-04-30T02:41:13;0.30;;;0.30;;
19985;SDS011;10154;52.474;10.768;2023-04-30T02:43:39;0.23;;;0.23;;
19985;SDS011;10154;52.474;10.768;2023-04-30T02:46:04;0.77;;;0.60;;
19985;SDS011;10154;52.474;10.768;2023-04-30T02:48:30;0.30;;;0.30;;
19985;SDS011;10154;52.474;10.768;2023-04-30T02:50:55;0.30;;;0.30;;
19985;SDS011;10154;52.474;10.768;2023-04-30T02:53:21;0.30;;;0.30;;
19985;SDS011;10154;52.474;10.768;2023-04-30T02:55:46;0.30;;;0.30;;
19985;SDS011;10154;52.474;10.768;2023-04-30T02:58:11;1.93;;;1.23;;
19985;SDS011;10154;52.474;10.768;2023-04-30T03:00:37;0.70;;;0.70;;
19985;SDS011;10154;52.474;10.768;2023-04-30T03:03:02;0.30;;;0.30;;
19985;SDS011;10154;52.474;10.768;2023-04-30T03:05:28;3.10;;;0.80;;
19985;SDS011;10154;52.474;10.768;2023-04-30T03:07:54;0.27;;;0.27;;
19985;SDS011;10154;52.474;10.768;2023-04-30T03:10:19;0.20;;;0.20;;
19985;SDS011;10154;52.474;10.768;2023-04-30T03:12:45;0.97;;;0.87;;
19985;SDS011;10154;52.474;10.768;2023-04-30T03:15:10;0.20;;;0.20;;
19985;SDS011;10154;52.474;10.768;2023-04-30T03:17:36;0.30;;;0.30;;
19985;SDS011;10154;52.474;10.768;2023-04-30T03:20:01;1.57;;;0.80;;
19985;SDS011;10154;52.474;10.768;2023-04-30T03:22:26;0.20;;;0.20;;
19985;SDS011;10154;52.474;10.768;2023-04-30T03:24:52;0.43;;;0.43;;
19985;SDS011;10154;52.474;10.768;2023-04-30T03:27:17;6.43;;;0.57;;
19985;SDS011;10154;52.474;10.768;2023-04-30T03:29:43;0.30;;;0.30;;
19985;SDS011;10154;52.474;10.768;2023-04-30T03:32:08;0.20;;;0.20;;
19985;SDS011;10154;52.474;10.768;2023-04-30T03:34:34;1.20;;;0.53;;
19985;SDS011;10154;52.474;10.768;2023-04-30T03:36:59;0.20;;;0.20;;
19985;SDS011;10154;52.474;10.768;2023-04-30T03:39:25;0.30;;;0.30;;
19985;SDS011;10154;52.474;10.768;2023-04-30T03:41:51;0.40;;;0.40;;
19985;SDS011;10154;52.474;10.768;2023-04-30T03:44:16;0.33;;;0.33;;
19985;SDS011;10154;52.474;10.768;2023-04-30T03:46:41;4.83;;;0.73;;
19985;SDS011;10154;52.474;10.768;2023-04-30T03:49:07;0.60;;;0.60;;
19985;SDS011;10154;52.474;10.768;2023-04-30T03:51:36;0.30;;;0.30;;
19985;SDS011;10154;52.474;10.768;2023-04-30T03:54:06;0.77;;;0.77;;
19985;SDS011;10154;52.474;10.768;2023-04-30T03:56:32;0.67;;;0.60;;
19985;SDS011;10154;52.474;10.768;2023-04-30T03:58:58;0.40;;;0.40;;
19985;SDS011;10154;52.474;10.768;2023-04-30T04:01:23;1.83;;;0.73;;
19985;SDS011;10154;52.474;10.768;2023-04-30T04:03:49;0.40;;;0.40;;
19985;SDS011;10154;52.474;10.768;2023-04-30T04:06:15;2.07;;;0.80;;
19985;SDS011;10154;52.474;10.768;2023-04-30T04:08:40;0.30;;;0.30;;
19985;SDS011;10154;52.474;10.768;2023-04-30T04:11:07;0.67;;;0.67;;
19985;SDS011;10154;52.474;10.768;2023-04-30T04:13:34;0.53;;;0.47;;
19985;SDS011;10154;52.474;10.768;2023-04-30T04:15:59;0.50;;;0.50;;
19985;SDS011;10154;52.474;10.768;2023-04-30T04:18:25;0.40;;;0.40;;
19985;SDS011;10154;52.474;10.768;2023-04-30T04:20:50;0.40;;;0.40;;
19985;SDS011;10154;52.474;10.768;2023-04-30T04:23:15;0.30;;;0.30;;
19985;SDS011;10154;52.474;10.768;2023-04-30T04:25:41;0.50;;;0.50;;
19985;SDS011;10154;52.474;10.768;2023-04-30T04:28:08;7.83;;;0.57;;
19985;SDS011;10154;52.474;10.768;2023-04-30T04:30:33;1.70;;;0.70;;
19985;SDS011;10154;52.474;10.768;2023-04-30T04:33:00;0.50;;;0.50;;
19985;SDS011;10154;52.474;10.768;2023-04-30T04:35:25;0.50;;;0.50;;
19985;SDS011;10154;52.474;10.768;2023-04-30T04:37:51;0.40;;;0.40;;
19985;SDS011;10154;52.474;10.768;2023-04-30T04:40:16;0.50;;;0.50;;
19985;SDS011;10154;52.474;10.768;2023-04-30T04:42:42;0.30;;;0.30;;
19985;SDS011;10154;52.474;10.768;2023-04-30T04:45:08;1.20;;;0.83;;
19985;SDS011;10154;52.474;10.768;2023-04-30T04:47:33;0.40;;;0.40;;
19985;SDS011;10154;52.474;10.768;2023-04-30T04:49:59;0.30;;;0.30;;
19985;SDS011;10154;52.474;10.768;2023-04-30T04:52:24;0.40;;;0.40;;
19985;SDS011;10154;52.474;10.768;2023-04-30T04:54:50;0.53;;;0.53;;
19985;SDS011;10154;52.474;10.768;2023-04-30T04:57:16;0.50;;;0.50;;
19985;SDS011;10154;52.474;10.768;2023-04-30T04:59:41;0.97;;;0.60;;
19985;SDS011;10154;52.474;10.768;2023-04-30T05:02:06;0.40;;;0.40;;
19985;SDS011;10154;52.474;10.768;2023-04-30T05:04:32;0.93;;;0.80;;
19985;SDS011;10154;52.474;10.768;2023-04-30T05:06:57;0.30;;;0.30;;
19985;SDS011;10154;52.474;10.768;2023-04-30T05:09:22;1.10;;;1.00;;
19985;SDS011;10154;52.474;10.768;2023-04-30T05:11:48;0.40;;;0.40;;
19985;SDS011;10154;52.474;10.768;2023-04-30T05:14:13;0.40;;;0.40;;
19985;SDS011;10154;52.474;10.768;2023-04-30T05:16:39;0.43;;;0.43;;
19985;SDS011;10154;52.474;10.768;2023-04-30T05:19:04;0.33;;;0.33;;
19985;SDS011;10154;52.474;10.768;2023-04-30T05:21:31;2.23;;;1.03;;
19985;SDS011;10154;52.474;10.768;2023-04-30T05:23:57;0.30;;;0.30;;
19985;SDS011;10154;52.474;10.768;2023-04-30T05:26:22;0.53;;;0.53;;
19985;SDS011;10154;52.474;10.768;2023-04-30T05:28:49;0.70;;;0.70;;
19985;SDS011;10154;52.474;10.768;2023-04-30T05:31:16;0.70;;;0.70;;
19985;SDS011;10154;52.474;10.768;2023-04-30T05:33:41;4.93;;;0.97;;
19985;SDS011;10154;52.474;10.768;2023-04-30T05:36:07;0.40;;;0.40;;
19985;SDS011;10154;52.474;10.768;2023-04-30T05:38:32;0.40;;;0.40;;
19985;SDS011;10154;52.474;10.768;2023-04-30T05:40:58;0.40;;;0.40;;
19985;SDS011;10154;52.474;10.768;2023-04-30T05:43:24;0.40;;;0.40;;
19985;SDS011;10154;52.474;10.768;2023-04-30T05:45:49;1.60;;;1.00;;
19985;SDS011;10154;52.474;10.768;2023-04-30T05:48:15;0.90;;;0.90;;
19985;SDS011;10154;52.474;10.768;2023-04-30T05:50:40;0.43;;;0.43;;
19985;SDS011;10154;52.474;10.768;2023-04-30T05:53:06;0.63;;;0.63;;
19985;SDS011;10154;52.474;10.768;2023-04-30T05:55:31;1.07;;;0.67;;
19985;SDS011;10154;52.474;10.768;2023-04-30T05:57:56;1.30;;;1.07;;
19985;SDS011;10154;52.474;10.768;2023-04-30T06:00:22;1.40;;;0.50;;
19985;SDS011;10154;52.474;10.768;2023-04-30T06:02:47;0.30;;;0.30;;
19985;SDS011;10154;52.474;10.768;2023-04-30T06:05:12;0.50;;;0.50;;
19985;SDS011;10154;52.474;10.768;2023-04-30T06:07:38;0.37;;;0.37;;
19985;SDS011;10154;52.474;10.768;2023-04-30T06:10:03;0.30;;;0.30;;
19985;SDS011;10154;52.474;10.768;2023-04-30T06:12:29;0.50;;;0.50;;
19985;SDS011;10154;52.474;10.768;2023-04-30T06:14:55;1.00;;;0.97;;
19985;SDS011;10154;52.474;10.768;2023-04-30T06:17:20;0.40;;;0.40;;
19985;SDS011;10154;52.474;10.768;2023-04-30T06:19:45;0.83;;;0.77;;
19985;SDS011;10154;52.474;10.768;2023-04-30T06:22:11;2.03;;;0.80;;
19985;SDS011;10154;52.474;10.768;2023-04-30T06:24:36;0.50;;;0.50;;
19985;SDS011;10154;52.474;10.768;2023-04-30T06:27:02;2.10;;;0.90;;
19985;SDS011;10154;52.474;10.768;2023-04-30T06:29:27;0.67;;;0.67;;
19985;SDS011;10154;52.474;10.768;2023-04-30T06:31:52;0.60;;;0.60;;
19985;SDS011;10154;52.474;10.768;2023-04-30T06:34:18;0.40;;;0.40;;
19985;SDS011;10154;52.474;10.768;2023-04-30T06:36:44;0.53;;;0.53;;
19985;SDS011;10154;52.474;10.768;2023-04-30T06:39:09;0.53;;;0.53;;
19985;SDS011;10154;52.474;10.768;2023-04-30T06:41:34;0.50;;;0.50;;
19985;SDS011;10154;52.474;10.768;2023-04-30T06:44:00;2.47;;;1.00;;
19985;SDS011;10154;52.474;10.768;2023-04-30T06:46:25;4.73;;;2.20;;
19985;SDS011;10154;52.474;10.768;2023-04-30T06:48:50;0.47;;;0.47;;
19985;SDS011;10154;52.474;10.768;2023-04-30T06:51:16;0.43;;;0.43;;
19985;SDS011;10154;52.474;10.768;2023-04-30T06:53:41;0.67;;;0.60;;
19985;SDS011;10154;52.474;10.768;2023-04-30T06:56:07;0.90;;;0.70;;
19985;SDS011;10154;52.474;10.768;2023-04-30T06:58:32;2.30;;;1.30;;
19985;SDS011;10154;52.474;10.768;2023-04-30T07:00:57;0.70;;;0.70;;
19985;SDS011;10154;52.474;10.768;2023-04-30T07:03:23;1.30;;;1.03;;
19985;SDS011;10154;52.474;10.768;2023-04-30T07:05:55;0.97;;;0.97;;
19985;SDS011;10154;52.474;10.768;2023-04-30T07:08:21;1.40;;;0.67;;
19985;SDS011;10154;52.474;10.768;2023-04-30T07:10:46;0.40;;;0.40;;
19985;SDS011;10154;52.474;10.768;2023-04-30T07:13:12;2.27;;;0.90;;
19985;SDS011;10154;52.474;10.768;2023-04-30T07:15:37;0.57;;;0.57;;
19985;SDS011;10154;52.474;10.768;2023-04-30T07:18:02;0.73;;;0.70;;
19985;SDS011;10154;52.474;10.768;2023-04-30T07:20:28;1.70;;;1.10;;
19985;SDS011;10154;52.474;10.768;2023-04-30T07:22:54;3.63;;;1.43;;
19985;SDS011;10154;52.474;10.768;2023-04-30T07:25:19;5.17;;;0.90;;
19985;SDS011;10154;52.474;10.768;2023-04-30T07:27:45;2.97;;;1.10;;
19985;SDS011;10154;52.474;10.768;2023-04-30T07:30:10;1.33;;;0.90;;
19985;SDS011;10154;52.474;10.768;2023-04-30T07:32:36;0.70;;;0.57;;
19985;SDS011;10154;52.474;10.768;2023-04-30T07:35:02;7.13;;;1.10;;
19985;SDS011;10154;52.474;10.768;2023-04-30T07:37:28;0.67;;;0.67;;
19985;SDS011;10154;52.474;10.768;2023-04-30T07:39:54;0.50;;;0.50;;
19985;SDS011;10154;52.474;10.768;2023-04-30T07:42:19;6.10;;;1.30;;
19985;SDS011;10154;52.474;10.768;2023-04-30T07:44:44;0.30;;;0.30;;
19985;SDS011;10154;52.474;10.768;2023-04-30T07:47:10;8.33;;;1.70;;
19985;SDS011;10154;52.474;10.768;2023-04-30T07:49:35;10.93;;;1.30;;
19985;SDS011;10154;52.474;10.768;2023-04-30T07:52:01;0.30;;;0.30;;
19985;SDS011;10154;52.474;10.768;2023-04-30T07:54:27;2.20;;;1.00;;
19985;SDS011;10154;52.474;10.768;2023-04-30T07:56:53;2.70;;;1.07;;
19985;SDS011;10154;52.474;10.768;2023-04-30T07:59:21;0.50;;;0.40;;
19985;SDS011;10154;52.474;10.768;2023-04-30T08:01:48;2.13;;;0.47;;
19985;SDS011;10154;52.474;10.768;2023-04-30T08:04:14;0.60;;;0.60;;
19985;SDS011;10154;52.474;10.768;2023-04-30T08:06:40;0.53;;;0.53;;
19985;SDS011;10154;52.474;10.768;2023-04-30T08:09:05;2.23;;;0.70;;
19985;SDS011;10154;52.474;10.768;2023-04-30T08:11:31;12.43;;;1.43;;
19985;SDS011;10154;52.474;10.768;2023-04-30T08:13:56;2.43;;;1.13;;
19985;SDS011;10154;52.474;10.768;2023-04-30T08:16:21;0.40;;;0.30;;
19985;SDS011;10154;52.474;10.768;2023-04-30T08:18:47;11.23;;;2.07;;
19985;SDS011;10154;52.474;10.768;2023-04-30T08:21:13;1.07;;;0.77;;
19985;SDS011;10154;52.474;10.768;2023-04-30T08:23:39;11.20;;;1.67;;
19985;SDS011;10154;52.474;10.768;2023-04-30T08:26:04;0.50;;;0.50;;
19985;SDS011;10154;52.474;10.768;2023-04-30T08:28:30;0.67;;;0.67;;
19985;SDS011;10154;52.474;10.768;2023-04-30T08:30:55;1.10;;;0.70;;
19985;SDS011;10154;52.474;10.768;2023-04-30T08:33:20;0.40;;;0.40;;
19985;SDS011;10154;52.474;10.768;2023-04-30T08:35:46;0.40;;;0.40;;
19985;SDS011;10154;52.474;10.768;2023-04-30T08:38:11;5.00;;;1.00;;
19985;SDS011;10154;52.474;10.768;2023-04-30T08:40:37;0.40;;;0.40;;
19985;SDS011;10154;52.474;10.768;2023-04-30T08:43:05;0.50;;;0.50;;
19985;SDS011;10154;52.474;10.768;2023-04-30T08:45:31;4.80;;;0.97;;
19985;SDS011;10154;52.474;10.768;2023-04-30T08:47:58;5.27;;;1.20;;
19985;SDS011;10154;52.474;10.768;2023-04-30T08:50:24;2.17;;;0.97;;
19985;SDS011;10154;52.474;10.768;2023-04-30T08:52:50;6.23;;;0.70;;
19985;SDS011;10154;52.474;10.768;2023-04-30T08:55:15;2.17;;;0.83;;
19985;SDS011;10154;52.474;10.768;2023-04-30T08:57:41;0.57;;;0.57;;
19985;SDS011;10154;52.474;10.768;2023-04-30T09:00:06;2.03;;;0.90;;
19985;SDS011;10154;52.474;10.768;2023-04-30T09:02:32;4.70;;;1.53;;
19985;SDS011;10154;52.474;10.768;2023-04-30T09:04:58;7.90;;;1.88;;
19985;SDS011;10154;52.474;10.768;2023-04-30T09:07:23;0.83;;;0.83;;
19985;SDS011;10154;52.474;10.768;2023-04-30T09:09:52;5.15;;;1.45;;
19985;SDS011;10154;52.474;10.768;2023-04-30T09:12:18;1.08;;;0.88;;
19985;SDS011;10154;52.474;10.768;2023-04-30T09:14:57;2.20;;;1.17;;
19985;SDS011;10154;52.474;10.768;2023-04-30T09:17:23;1.13;;;0.88;;
19985;SDS011;10154;52.474;10.768;2023-04-30T09:19:49;0.80;;;0.80;;
19985;SDS011;10154;52.474;10.768;2023-04-30T09:22:19;0.50;;;0.50;;
19985;SDS011;10154;52.474;10.768;2023-04-30T09:24:46;6.47;;;1.58;;
19985;SDS011;10154;52.474;10.768;2023-04-30T09:27:16;1.55;;;1.02;;
19985;SDS011;10154;52.474;10.768;2023-04-30T09:29:43;0.73;;;0.73;;
19985;SDS011;10154;52.474;10.768;2023-04-30T09:32:09;1.20;;;1.08;;
19985;SDS011;10154;52.474;10.768;2023-04-30T09:34:34;0.93;;;0.90;;
19985;SDS011;10154;52.474;10.768;2023-04-30T09:37:00;7.32;;;1.30;;
19985;SDS011;10154;52.474;10.768;2023-04-30T09:39:25;1.13;;;1.00;;
19985;SDS011;10154;52.474;10.768;2023-04-30T09:41:50;3.05;;;1.17;;
19985;SDS011;10154;52.474;10.768;2023-04-30T09:44:26;3.03;;;1.30;;
19985;SDS011;10154;52.474;10.768;2023-04-30T09:46:52;5.35;;;0.90;;
19985;SDS011;10154;52.474;10.768;2023-04-30T09:49:17;0.98;;;0.90;;
19985;SDS011;10154;52.474;10.768;2023-04-30T09:51:59;0.80;;;0.80;;
19985;SDS011;10154;52.474;10.768;2023-04-30T09:54:28;0.52;;;0.52;;
19985;SDS011;10154;52.474;10.768;2023-04-30T09:56:55;0.60;;;0.60;;
19985;SDS011;10154;52.474;10.768;2023-04-30T09:59:23;1.55;;;1.05;;
19985;SDS011;10154;52.474;10.768;2023-04-30T10:01:52;0.50;;;0.50;;
19985;SDS011;10154;52.474;10.768;2023-04-30T10:04:18;4.28;;;1.05;;
19985;SDS011;10154;52.474;10.768;2023-04-30T10:06:43;2.90;;;1.40;;
19985;SDS011;10154;52.474;10.768;2023-04-30T10:09:09;0.50;;;0.50;;
19985;SDS011;10154;52.474;10.768;2023-04-30T10:11:35;5.95;;;2.00;;
19985;SDS011;10154;52.474;10.768;2023-04-30T10:14:02;2.92;;;1.38;;
19985;SDS011;10154;52.474;10.768;2023-04-30T10:16:39;6.80;;;1.35;;
19985;SDS011;10154;52.474;10.768;2023-04-30T10:19:30;2.28;;;1.30;;
19985;SDS011;10154;52.474;10.768;2023-04-30T10:21:58;3.53;;;1.08;;
19985;SDS011;10154;52.474;10.768;2023-04-30T10:24:23;0.55;;;0.55;;
19985;SDS011;10154;52.474;10.768;2023-04-30T10:26:50;4.97;;;1.88;;
19985;SDS011;10154;52.474;10.768;2023-04-30T10:29:21;0.85;;;0.70;;
19985;SDS011;10154;52.474;10.768;2023-04-30T10:31:47;3.78;;;1.75;;
19985;SDS011;10154;52.474;10.768;2023-04-30T10:34:16;3.65;;;1.23;;
19985;SDS011;10154;52.474;10.768;2023-04-30T10:36:47;3.55;;;1.30;;
19985;SDS011;10154;52.474;10.768;2023-04-30T10:39:21;6.22;;;1.75;;
19985;SDS011;10154;52.474;10.768;2023-04-30T10:41:48;5.68;;;1.48;;
19985;SDS011;10154;52.474;10.768;2023-04-30T10:44:14;3.92;;;1.50;;
19985;SDS011;10154;52.474;10.768;2023-04-30T10:46:40;0.40;;;0.40;;
19985;SDS011;10154;52.474;10.768;2023-04-30T10:49:05;2.67;;;1.45;;
19985;SDS011;10154;52.474;10.768;2023-04-30T10:51:47;5.95;;;1.85;;
19985;SDS011;10154;52.474;10.768;2023-04-30T10:54:22;4.70;;;1.98;;
19985;SDS011;10154;52.474;10.768;2023-04-30T10:56:51;0.60;;;0.60;;
19985;SDS011;10154;52.474;10.768;2023-04-30T10:59:20;0.73;;;0.73;;
19985;SDS011;10154;52.474;10.768;2023-04-30T11:01:58;0.75;;;0.63;;
19985;SDS011;10154;52.474;10.768;2023-04-30T11:04:25;1.55;;;0.95;;
19985;SDS011;10154;52.474;10.768;2023-04-30T11:09:16;0.70;;;0.70;;
19985;SDS011;10154;52.474;10.768;2023-04-30T11:11:45;7.22;;;2.13;;
19985;SDS011;10154;52.474;10.768;2023-04-30T11:14:11;7.93;;;2.70;;
19985;SDS011;10154;52.474;10.768;2023-04-30T11:16:37;3.00;;;1.70;;
19985;SDS011;10154;52.474;10.768;2023-04-30T11:19:06;6.13;;;2.05;;
19985;SDS011;10154;52.474;10.768;2023-04-30T11:21:38;4.70;;;2.20;;
19985;SDS011;10154;52.474;10.768;2023-04-30T11:24:05;3.83;;;2.10;;
19985;SDS011;10154;52.474;10.768;2023-04-30T11:27:01;5.63;;;2.10;;
19985;SDS011;10154;52.474;10.768;2023-04-30T11:29:32;7.88;;;2.28;;
19985;SDS011;10154;52.474;10.768;2023-04-30T11:32:01;9.18;;;2.63;;
19985;SDS011;10154;52.474;10.768;2023-04-30T11:34:28;5.45;;;2.45;;
19985;SDS011;10154;52.474;10.768;2023-04-30T11:36:54;9.65;;;2.80;;
19985;SDS011;10154;52.474;10.768;2023-04-30T11:39:23;7.80;;;2.78;;
19985;SDS011;10154;52.474;10.768;2023-04-30T11:41:49;5.70;;;2.50;;
19985;SDS011;10154;52.474;10.768;2023-04-30T11:44:48;7.18;;;2.78;;
19985;SDS011;10154;52.474;10.768;2023-04-30T11:47:06;3.00;;;1.98;;
19985;SDS011;10154;52.474;10.768;2023-04-30T11:49:32;3.53;;;1.63;;
19985;SDS011;10154;52.474;10.768;2023-04-30T11:51:57;5.10;;;2.38;;
19985;SDS011;10154;52.474;10.768;2023-04-30T11:54:22;5.75;;;2.53;;
19985;SDS011;10154;52.474;10.768;2023-04-30T11:56:48;6.18;;;2.70;;
19985;SDS011;10154;52.474;10.768;2023-04-30T11:59:16;5.75;;;2.40;;
19985;SDS011;10154;52.474;10.768;2023-04-30T12:01:42;7.85;;;2.50;;
19985;SDS011;10154;52.474;10.768;2023-04-30T12:04:08;5.60;;;2.53;;
19985;SDS011;10154;52.474;10.768;2023-04-30T12:06:34;9.40;;;2.75;;
19985;SDS011;10154;52.474;10.768;2023-04-30T12:09:00;8.00;;;3.10;;
19985;SDS011;10154;52.474;10.768;2023-04-30T12:11:32;6.93;;;2.50;;
19985;SDS011;10154;52.474;10.768;2023-04-30T12:14:09;3.58;;;1.88;;
19985;SDS011;10154;52.474;10.768;2023-04-30T12:16:42;5.47;;;2.42;;
19985;SDS011;10154;52.474;10.768;2023-04-30T12:19:15;7.57;;;2.85;;
19985;SDS011;10154;52.474;10.768;2023-04-30T12:21:45;5.43;;;2.47;;
19985;SDS011;10154;52.474;10.768;2023-04-30T12:24:20;6.68;;;2.45;;
19985;SDS011;10154;52.474;10.768;2023-04-30T12:26:47;3.85;;;2.15;;
19985;SDS011;10154;52.474;10.768;2023-04-30T12:29:15;8.05;;;2.70;;
19985;SDS011;10154;52.474;10.768;2023-04-30T12:31:42;7.75;;;3.10;;
19985;SDS011;10154;52.474;10.768;2023-04-30T12:34:09;9.82;;;2.80;;
19985;SDS011;10154;52.474;10.768;2023-04-30T12:36:36;5.35;;;2.55;;
19985;SDS011;10154;52.474;10.768;2023-04-30T12:39:06;6.70;;;2.80;;
19985;SDS011;10154;52.474;10.768;2023-04-30T12:41:42;5.38;;;2.60;;
19985;SDS011;10154;52.474;10.768;2023-04-30T12:44:21;6.93;;;2.58;;
19985;SDS011;10154;52.474;10.768;2023-04-30T12:46:47;5.85;;;2.30;;
19985;SDS011;10154;52.474;10.768;2023-04-30T12:49:27;3.50;;;2.00;;
19985;SDS011;10154;52.474;10.768;2023-04-30T12:51:58;5.93;;;2.47;;
19985;SDS011;10154;52.474;10.768;2023-04-30T12:54:29;5.75;;;2.50;;
19985;SDS011;10154;52.474;10.768;2023-04-30T12:57:00;7.63;;;2.58;;
19985;SDS011;10154;52.474;10.768;2023-04-30T12:59:26;4.07;;;2.08;;
19985;SDS011;10154;52.474;10.768;2023-04-30T13:01:52;5.75;;;2.38;;
19985;SDS011;10154;52.474;10.768;2023-04-30T13:04:19;9.63;;;2.53;;
19985;SDS011;10154;52.474;10.768;2023-04-30T13:06:44;7.55;;;2.60;;
19985;SDS011;10154;52.474;10.768;2023-04-30T13:09:10;6.60;;;2.78;;
19985;SDS011;10154;52.474;10.768;2023-04-30T13:11:36;6.65;;;2.60;;
19985;SDS011;10154;52.474;10.768;2023-04-30T13:14:01;6.15;;;2.47;;
19985;SDS011;10154;52.474;10.768;2023-04-30T13:16:27;4.95;;;2.25;;
19985;SDS011;10154;52.474;10.768;2023-04-30T13:18:52;4.15;;;2.10;;
19985;SDS011;10154;52.474;10.768;2023-04-30T13:21:18;6.57;;;2.75;;
19985;SDS011;10154;52.474;10.768;2023-04-30T13:23:45;6.43;;;2.50;;
19985;SDS011;10154;52.474;10.768;2023-04-30T13:26:10;2.97;;;1.80;;
19985;SDS011;10154;52.474;10.768;2023-04-30T13:28:36;4.88;;;2.30;;
19985;SDS011;10154;52.474;10.768;2023-04-30T13:31:01;9.65;;;2.80;;
19985;SDS011;10154;52.474;10.768;2023-04-30T13:33:27;6.93;;;2.47;;
19985;SDS011;10154;52.474;10.768;2023-04-30T13:35:53;5.05;;;1.95;;
19985;SDS011;10154;52.474;10.768;2023-04-30T13:38:18;4.82;;;2.15;;
19985;SDS011;10154;52.474;10.768;2023-04-30T13:40:44;5.72;;;2.40;;
19985;SDS011;10154;52.474;10.768;2023-04-30T13:43:09;6.05;;;2.20;;
19985;SDS011;10154;52.474;10.768;2023-04-30T13:45:34;8.90;;;2.80;;
19985;SDS011;10154;52.474;10.768;2023-04-30T13:48:00;6.45;;;2.55;;
19985;SDS011;10154;52.474;10.768;2023-04-30T13:50:25;5.75;;;2.38;;
19985;SDS011;10154;52.474;10.768;2023-04-30T13:52:50;4.45;;;2.20;;
19985;SDS011;10154;52.474;10.768;2023-04-30T13:55:16;5.05;;;1.90;;
19985;SDS011;10154;52.474;10.768;2023-04-30T13:57:41;2.70;;;1.73;;
19985;SDS011;10154;52.474;10.768;2023-04-30T14:00:07;6.53;;;2.50;;
19985;SDS011;10154;52.474;10.768;2023-04-30T14:02:33;9.77;;;2.63;;
19985;SDS011;10154;52.474;10.768;2023-04-30T14:04:58;7.82;;;2.63;;
19985;SDS011;10154;52.474;10.768;2023-04-30T14:07:24;3.10;;;1.83;;
19985;SDS011;10154;52.474;10.768;2023-04-30T14:09:49;6.30;;;2.47;;
19985;SDS011;10154;52.474;10.768;2023-04-30T14:12:15;7.95;;;2.70;;
19985;SDS011;10154;52.474;10.768;2023-04-30T14:14:40;5.00;;;2.58;;
19985;SDS011;10154;52.474;10.768;2023-04-30T14:17:06;6.47;;;2.40;;
19985;SDS011;10154;52.474;10.768;2023-04-30T14:19:31;7.90;;;2.30;;
19985;SDS011;10154;52.474;10.768;2023-04-30T14:21:57;3.67;;;1.60;;
19985;SDS011;10154;52.474;10.768;2023-04-30T14:24:22;3.70;;;1.98;;
19985;SDS011;10154;52.474;10.768;2023-04-30T14:26:48;5.22;;;2.20;;
19985;SDS011;10154;52.474;10.768;2023-04-30T14:29:15;7.15;;;2.33;;
19985;SDS011;10154;52.474;10.768;2023-04-30T14:31:40;5.45;;;2.45;;
19985;SDS011;10154;52.474;10.768;2023-04-30T14:34:05;3.22;;;1.88;;
19985;SDS011;10154;52.474;10.768;2023-04-30T14:36:32;4.05;;;1.90;;
19985;SDS011;10154;52.474;10.768;2023-04-30T14:38:58;7.07;;;2.40;;
19985;SDS011;10154;52.474;10.768;2023-04-30T14:41:23;5.57;;;2.35;;
19985;SDS011;10154;52.474;10.768;2023-04-30T14:43:48;7.88;;;2.50;;
19985;SDS011;10154;52.474;10.768;2023-04-30T14:46:14;8.85;;;2.67;;
19985;SDS011;10154;52.474;10.768;2023-04-30T14:48:39;3.70;;;1.63;;
19985;SDS011;10154;52.474;10.768;2023-04-30T14:51:04;7.57;;;2.38;;